Time;durP1;ratioP1;P1;durP2;ratioP2;P2;SDS_P1;SDS_P2;PMS_P1;PMS_P2;Temp;Humidity;BMP_temperature;BMP_pressure;BME280_temperature;BME280_humidity;BME280_pressure;Samples;Min_cycle;Max_cycle;Signal;HPM_P1;HPM_P2
2023/01/24 00:00:35;;;;;;;5.80;5.30;;;;;;;19.14;46.71;98796.78;4960435;28;20242;-84
2023/01/24 00:03:03;;;;;;;5.27;4.77;;;;;;;18.86;46.83;98749.22;4954850;28;20649;-84
2023/01/24 00:05:29;;;;;;;5.60;5.10;;;;;;;19.09;47.36;98784.56;4954292;28;20971;-84
2023/01/24 00:07:56;;;;;;;5.80;5.20;;;;;;;18.83;46.87;98732.06;4970952;28;20207;-84
2023/01/24 00:10:24;;;;;;;5.67;5.10;;;;;;;19.06;46.99;98769.09;4977748;28;20204;-84
2023/01/24 00:12:51;;;;;;;5.40;4.90;;;;;;;18.95;46.93;98750.63;4972888;28;20231;-84
2023/01/24 00:15:17;;;;;;;5.90;5.30;;;;;;;19.27;46.77;98801.84;4957389;28;20233;-84
2023/01/24 00:17:44;;;;;;;5.60;5.03;;;;;;;19.22;47.04;98787.03;4975982;28;20250;-84
2023/01/24 00:20:11;;;;;;;5.73;5.23;;;;;;;19.21;46.96;98793.81;4958229;28;20235;-83
2023/01/24 00:22:37;;;;;;;5.43;4.93;;;;;;;19.28;46.96;98810.38;4991069;28;20310;-84
2023/01/24 00:25:04;;;;;;;4.80;4.40;;;;;;;18.88;47.10;98745.97;4971214;28;20223;-84
2023/01/24 00:27:31;;;;;;;5.03;4.63;;;;;;;18.92;47.09;98759.78;4965885;28;20267;-84
2023/01/24 00:29:58;;;;;;;5.87;5.20;;;;;;;19.06;47.19;98782.72;4974283;28;20207;-84
2023/01/24 00:32:24;;;;;;;5.53;5.03;;;;;;;19.11;46.87;98794.06;4970473;28;20303;-84
2023/01/24 00:34:51;;;;;;;5.73;5.23;;;;;;;18.83;46.93;98742.25;4975837;28;20612;-84
2023/01/24 00:37:17;;;;;;;5.57;4.97;;;;;;;18.97;47.72;98764.34;4958654;28;20222;-84
2023/01/24 00:39:44;;;;;;;4.90;4.40;;;;;;;18.95;46.92;98754.88;4958663;28;20291;-84
2023/01/24 00:42:11;;;;;;;5.10;4.60;;;;;;;18.75;47.29;98725.69;4975328;28;20234;-84
2023/01/24 00:44:37;;;;;;;5.40;4.90;;;;;;;19.18;47.08;98808.91;4973423;28;20278;-84
2023/01/24 00:47:04;;;;;;;5.20;4.70;;;;;;;19.12;47.09;98797.47;4970474;28;20308;-84
2023/01/24 00:49:30;;;;;;;5.53;5.03;;;;;;;18.51;46.77;98690.22;4968166;28;20243;-84
2023/01/24 00:51:57;;;;;;;5.57;5.07;;;;;;;19.18;46.87;98810.56;4989732;28;20207;-84
2023/01/24 00:54:24;;;;;;;5.47;4.97;;;;;;;18.80;46.78;98739.53;4975209;28;20671;-84
2023/01/24 00:56:50;;;;;;;5.93;5.33;;;;;;;19.19;46.73;98813.22;4990450;28;20210;-84
2023/01/24 00:59:17;;;;;;;5.60;5.10;;;;;;;18.99;46.99;98779.72;4950753;28;20587;-84
2023/01/24 01:01:43;;;;;;;5.73;5.10;;;;;;;19.25;46.90;98826.34;4975642;28;20196;-84
2023/01/24 01:04:10;;;;;;;5.43;4.93;;;;;;;19.26;46.92;98827.22;4974855;28;20228;-85
2023/01/24 01:06:39;;;;;;;5.70;5.10;;;;;;;19.25;46.93;98830.56;4957296;28;20220;-84
2023/01/24 01:09:06;;;;;;;5.40;4.90;;;;;;;19.00;47.09;98790.00;4935016;28;20296;-84
2023/01/24 01:11:32;;;;;;;5.33;4.83;;;;;;;18.96;47.20;98779.53;4954852;28;20208;-84
2023/01/24 01:13:59;;;;;;;5.47;4.97;;;;;;;19.25;47.21;98828.00;4956128;28;20601;-84
2023/01/24 01:16:25;;;;;;;5.90;5.37;;;;;;;18.95;47.18;98780.34;4989223;28;20191;-84
2023/01/24 01:18:54;;;;;;;5.37;4.87;;;;;;;19.24;47.07;98827.13;4970558;28;20204;-84
2023/01/24 01:21:21;;;;;;;5.10;4.60;;;;;;;19.02;47.11;98797.72;4970527;28;20226;-84
2023/01/24 01:23:47;;;;;;;5.77;5.23;;;;;;;18.84;46.85;98764.41;4955009;28;20243;-84
2023/01/24 01:26:19;;;;;;;5.30;4.80;;;;;;;18.99;47.16;98789.91;4952874;28;20228;-84
2023/01/24 01:28:45;;;;;;;5.30;4.80;;;;;;;19.15;47.24;98825.69;4970729;28;20208;-84
2023/01/24 01:31:12;;;;;;;5.30;4.80;;;;;;;19.18;47.20;98836.06;4970173;28;20211;-84
2023/01/24 01:33:39;;;;;;;5.30;4.80;;;;;;;19.01;47.13;98804.47;4987828;28;20725;-84
2023/01/24 01:36:06;;;;;;;5.57;5.07;;;;;;;19.00;47.18;98801.84;4957392;28;20708;-84
2023/01/24 01:38:32;;;;;;;5.97;5.37;;;;;;;18.93;47.22;98787.00;4973640;28;20295;-84
2023/01/24 01:40:59;;;;;;;5.40;4.90;;;;;;;18.80;47.31;98762.47;4956931;28;20637;-84
2023/01/24 01:43:27;;;;;;;5.90;5.30;;;;;;;18.98;47.33;98789.03;4953093;28;20224;-84
2023/01/24 01:46:13;;;;;;;5.53;5.03;;;;;;;18.94;47.10;98784.53;4972940;28;20223;-84
2023/01/24 01:48:43;;;;;;;5.47;4.93;;;;;;;19.02;47.12;98802.81;4972307;28;20234;-84
2023/01/24 01:51:18;;;;;;;5.27;4.77;;;;;;;19.24;47.05;98839.84;4973347;28;20300;-84
2023/01/24 01:53:57;;;;;;;5.33;4.83;;;;;;;19.16;47.25;98825.78;4974060;28;20247;-83
2023/01/24 01:56:42;;;;;;;5.00;4.53;;;;;;;19.10;46.79;98816.91;4974965;28;20230;-84
2023/01/24 01:59:11;;;;;;;6.00;5.40;;;;;;;19.01;46.82;98813.81;4957480;28;20709;-84
2023/01/24 02:01:38;;;;;;;5.57;5.07;;;;;;;19.00;46.70;98812.03;4967507;28;20199;-84
2023/01/24 02:04:10;;;;;;;5.83;5.13;;;;;;;19.23;46.79;98852.50;4957731;28;20274;-84
2023/01/24 02:06:43;;;;;;;5.67;5.07;;;;;;;19.23;47.09;98858.50;4972399;28;20310;-84
2023/01/24 02:09:09;;;;;;;5.87;5.37;;;;;;;19.13;47.23;98843.44;4974400;28;20636;-84
2023/01/24 02:11:39;;;;;;;5.60;5.10;;;;;;;19.20;47.09;98855.78;4976932;28;20199;-84
2023/01/24 02:16:56;;;;;;;5.83;5.30;;;;;;;18.99;47.16;98826.47;4972564;28;20274;-84
2023/01/24 02:19:46;;;;;;;5.70;5.20;;;;;;;19.24;47.13;98867.91;4980413;28;20316;-84
2023/01/24 02:22:24;;;;;;;5.50;5.00;;;;;;;18.98;47.30;98823.81;4971801;28;20283;-84
2023/01/24 02:25:10;;;;;;;5.50;5.00;;;;;;;19.15;47.29;98861.34;4969843;28;20196;-84
2023/01/24 02:27:36;;;;;;;4.97;4.57;;;;;;;19.01;47.25;98852.91;4972424;28;20219;-84
2023/01/24 02:30:03;;;;;;;5.33;4.83;;;;;;;19.06;47.31;98848.97;4971542;28;20651;-84
2023/01/24 02:32:30;;;;;;;5.57;5.07;;;;;;;18.97;47.49;98828.03;4959252;28;20240;-84
2023/01/24 02:34:57;;;;;;;5.53;5.03;;;;;;;19.22;47.09;98884.75;4958493;28;20200;-84
2023/01/24 02:37:23;;;;;;;5.40;4.90;;;;;;;19.06;47.23;98842.97;4974216;28;20207;-84
2023/01/24 02:39:58;;;;;;;5.30;4.80;;;;;;;19.24;47.05;98873.00;4978228;28;20253;-84
2023/01/24 02:42:28;;;;;;;5.30;4.80;;;;;;;19.18;47.30;98861.53;4989624;28;20226;-84
2023/01/24 02:45:01;;;;;;;5.40;4.90;;;;;;;19.25;47.28;98876.44;4973467;28;20218;-84
2023/01/24 02:47:32;;;;;;;5.03;4.53;;;;;;;19.00;47.22;98834.97;4971817;28;20215;-84
2023/01/24 02:49:59;;;;;;;5.30;4.80;;;;;;;18.66;47.02;98764.97;4966032;28;20199;-84
2023/01/24 02:55:12;;;;;;;4.93;4.43;;;;;;;19.13;46.86;98851.06;4968039;28;20195;-84
2023/01/24 03:00:24;;;;;;;5.87;5.37;;;;;;;19.05;46.89;98837.03;4968923;28;20207;-84
2023/01/24 03:02:50;;;;;;;5.17;4.70;;;;;;;19.04;47.06;98835.25;4972089;28;20242;-84
2023/01/24 03:05:17;;;;;;;5.90;5.30;;;;;;;19.09;46.88;98840.59;4968113;28;20200;-84
2023/01/24 03:07:46;;;;;;;5.50;4.63;;;;;;;19.15;46.88;98853.72;4971950;28;20222;-84
2023/01/24 03:10:14;;;;;;;5.30;4.80;;;;;;;19.07;47.12;98840.53;4987829;28;20202;-84
2023/01/24 03:34:51;;;;;;;5.23;4.70;;;;;;;18.98;47.23;98829.78;4970680;28;20358;-84
2023/01/24 03:39:53;;;;;;;5.47;4.87;;;;;;;18.99;47.07;98820.47;4971551;28;20203;-84
2023/01/24 03:40:10;;;;;;;5.40;4.90;;;;;;;18.99;47.09;98821.38;4974659;28;20196;-84
2023/01/24 03:42:46;;;;;;;5.37;4.87;;;;;;;19.01;47.11;98826.56;4954887;28;20231;-84
2023/01/24 03:45:42;;;;;;;5.10;4.60;;;;;;;19.21;47.09;98862.63;4971663;28;20214;-84
2023/01/24 03:48:12;;;;;;;5.60;5.00;;;;;;;19.04;47.15;98842.03;4956989;28;20684;-84
2023/01/24 03:53:27;;;;;;;4.90;4.50;;;;;;;19.11;47.01;98846.69;4970305;28;20223;-84
2023/01/24 03:56:00;;;;;;;5.13;4.67;;;;;;;19.00;46.98;98830.75;4952794;28;20208;-84
2023/01/24 03:58:29;;;;;;;4.83;4.37;;;;;;;19.00;46.79;98835.84;4986660;28;20200;-84
2023/01/24 04:00:56;;;;;;;4.80;4.40;;;;;;;18.99;46.88;98840.88;4955442;28;20294;-84
2023/01/24 04:03:22;;;;;;;5.37;4.87;;;;;;;18.94;46.95;98824.41;4970938;28;20220;-84
2023/01/24 04:05:49;;;;;;;5.03;4.63;;;;;;;18.95;47.03;98824.50;4979638;28;20343;-84
2023/01/24 04:08:16;;;;;;;5.27;4.77;;;;;;;19.08;47.10;98849.94;4953866;28;20227;-84
2023/01/24 04:10:43;;;;;;;4.40;4.00;;;;;;;19.08;47.03;98838.88;4987117;28;20655;-84
2023/01/24 04:13:09;;;;;;;4.60;4.20;;;;;;;18.88;46.99;98802.00;4954978;28;20230;-84
2023/01/24 04:15:37;;;;;;;4.60;4.20;;;;;;;19.12;47.17;98856.97;4961835;28;20287;-84
2023/01/24 04:18:04;;;;;;;5.00;4.60;;;;;;;18.99;47.18;98825.56;4970111;28;20202;-84
2023/01/24 04:20:32;;;;;;;4.70;4.30;;;;;;;18.74;47.15;98781.59;4961112;28;20195;-84
2023/01/24 04:23:06;;;;;;;4.80;4.40;;;;;;;18.64;47.08;98761.44;4955285;28;20234;-84
2023/01/24 04:25:33;;;;;;;4.70;4.30;;;;;;;19.14;47.17;98854.50;4955207;28;20215;-84
2023/01/24 04:28:00;;;;;;;4.60;4.20;;;;;;;19.06;47.08;98837.88;4970743;28;20233;-84
2023/01/24 04:30:26;;;;;;;4.67;4.27;;;;;;;19.05;47.01;98837.03;4986192;28;20204;-84
2023/01/24 04:32:53;;;;;;;4.70;4.30;;;;;;;18.91;47.13;98820.03;4953808;28;20263;-84
2023/01/24 04:35:22;;;;;;;4.63;4.23;;;;;;;19.00;47.19;98834.97;4956038;28;20569;-84
2023/01/24 04:37:49;;;;;;;4.30;3.90;;;;;;;18.99;47.19;98833.22;4953167;28;20204;-85
2023/01/24 04:40:16;;;;;;;4.97;4.57;;;;;;;19.15;47.18;98863.91;4966037;28;20263;-85
2023/01/24 04:42:42;;;;;;;4.23;3.83;;;;;;;19.04;47.20;98847.13;4957385;28;20742;-84
2023/01/24 04:45:09;;;;;;;4.83;4.43;;;;;;;19.09;47.33;98855.91;4976076;28;20227;-85
2023/01/24 04:47:36;;;;;;;4.40;4.00;;;;;;;18.96;47.05;98836.47;4971273;28;20274;-85
2023/01/24 04:50:03;;;;;;;4.37;3.97;;;;;;;18.89;46.95;98813.94;4953171;28;20204;-83
2023/01/24 04:52:29;;;;;;;4.70;4.30;;;;;;;19.05;46.56;98852.31;4974482;28;20255;-84
2023/01/24 04:54:56;;;;;;;4.53;4.13;;;;;;;18.89;46.92;98825.81;4975337;28;20232;-84
2023/01/24 04:57:23;;;;;;;4.87;4.47;;;;;;;19.05;47.14;98859.06;4949376;28;20200;-85
2023/01/24 04:59:49;;;;;;;4.30;3.90;;;;;;;19.08;46.91;98862.69;4977143;28;20200;-84
2023/01/24 05:02:16;;;;;;;4.73;4.33;;;;;;;19.05;47.15;98859.06;4975691;28;20274;-84
2023/01/24 05:04:43;;;;;;;4.47;4.07;;;;;;;19.22;46.57;98891.53;4972853;28;20298;-84
2023/01/24 05:07:10;;;;;;;5.00;4.50;;;;;;;19.08;46.65;98865.22;4974850;28;22214;-85
2023/01/24 05:09:36;;;;;;;4.70;4.20;;;;;;;19.21;46.46;98888.09;4965663;28;20646;-84
2023/01/24 05:12:03;;;;;;;4.87;3.93;;;;;;;19.13;46.85;98889.31;4974618;28;20203;-84
2023/01/24 05:14:30;;;;;;;4.97;4.47;;;;;;;19.03;47.02;98864.06;4963700;28;20611;-84
2023/01/24 05:16:57;;;;;;;4.87;4.13;;;;;;;19.04;46.98;98858.16;4973190;28;20203;-84
2023/01/24 05:19:23;;;;;;;4.00;3.70;;;;;;;18.92;47.00;98833.66;4959424;28;20210;-84
2023/01/24 05:21:50;;;;;;;4.57;4.17;;;;;;;18.99;47.06;98846.84;4954714;28;20282;-84
2023/01/24 05:24:18;;;;;;;4.50;4.10;;;;;;;19.21;46.99;98887.22;4969818;28;20589;-85
2023/01/24 05:26:44;;;;;;;4.20;3.80;;;;;;;19.21;46.72;98882.13;4971536;28;20306;-85
2023/01/24 05:29:11;;;;;;;4.33;3.93;;;;;;;18.96;46.87;98838.13;4972857;28;20200;-84
2023/01/24 05:31:37;;;;;;;4.23;3.83;;;;;;;18.96;47.19;98844.13;4972807;28;20203;-84
2023/01/24 05:34:05;;;;;;;4.40;4.00;;;;;;;18.96;46.93;98845.78;4934212;28;1121438;-84
2023/01/24 05:36:31;;;;;;;4.10;3.80;;;;;;;18.93;46.88;98841.38;4974582;28;20200;-84
2023/01/24 05:38:58;;;;;;;5.43;4.70;;;;;;;19.06;46.63;98864.25;4956620;28;20231;-87
2023/01/24 05:41:25;;;;;;;6.50;4.87;;;;;;;18.37;44.69;98754.66;4958629;28;20299;-87
2023/01/24 05:43:52;;;;;;;4.90;4.50;;;;;;;18.91;44.30;98844.59;4958573;28;20646;-87
2023/01/24 05:46:19;;;;;;;4.67;4.23;;;;;;;18.95;45.00;98852.53;4975353;28;20231;-87
2023/01/24 05:48:46;;;;;;;5.30;4.80;;;;;;;19.12;45.12;98876.47;4957079;28;20208;-87
2023/01/24 05:51:14;;;;;;;5.83;4.70;;;;;;;19.21;45.28;98905.06;4974250;28;20288;-87
2023/01/24 05:53:41;;;;;;;4.60;4.10;;;;;;;19.04;45.52;98880.25;4955718;28;20279;-86
2023/01/24 05:56:16;;;;;;;4.77;4.37;;;;;;;18.34;45.57;98759.56;4973711;28;20231;-87
2023/01/24 05:58:43;;;;;;;4.60;4.20;;;;;;;18.90;45.42;98853.94;4972926;28;20237;-85
2023/01/24 06:01:13;;;;;;;5.10;4.47;;;;;;;19.20;45.70;98909.28;4956995;28;20260;-86
2023/01/24 06:03:43;;;;;;;4.77;4.37;;;;;;;18.87;45.96;98852.88;4955380;28;20597;-86
2023/01/24 06:06:11;;;;;;;5.03;4.53;;;;;;;19.15;45.98;98910.66;4971433;28;20196;-86
2023/01/24 06:08:37;;;;;;;4.67;4.27;;;;;;;19.14;45.86;98910.59;4958151;28;20646;-86
2023/01/24 06:11:05;;;;;;;4.50;4.10;;;;;;;19.13;45.93;98916.47;4968638;28;20231;-85
2023/01/24 06:13:32;;;;;;;4.93;4.33;;;;;;;18.88;45.84;98862.25;4970272;28;20730;-86
2023/01/24 06:16:35;;;;;;;4.80;4.30;;;;;;;19.21;45.50;98916.13;4957065;28;20572;-87
2023/01/24 06:19:01;;;;;;;5.63;4.20;;;;;;;19.21;44.07;98933.09;4964382;28;20211;-86
2023/01/24 06:21:40;;;;;;;6.53;4.87;;;;;;;19.20;44.00;98934.78;4951902;28;20220;-86
2023/01/24 06:24:18;;;;;;;5.73;5.13;;;;;;;18.88;44.15;98886.06;4989065;28;20651;-86
2023/01/24 06:26:45;;;;;;;6.40;4.73;;;;;;;18.65;43.46;98843.03;4988320;28;20735;-86
2023/01/24 06:29:12;;;;;;;5.37;4.87;;;;;;;18.37;42.79;98791.22;4964607;28;20296;-86
2023/01/24 06:31:57;;;;;;;5.23;4.60;;;;;;;19.15;41.99;98930.16;4963635;28;20746;-86
2023/01/24 06:34:34;;;;;;;5.33;4.80;;;;;;;18.87;41.50;98885.97;4981027;28;20631;-87
2023/01/24 06:37:04;;;;;;;5.47;4.97;;;;;;;18.69;41.17;98872.13;4962452;28;20204;-85
2023/01/24 06:39:31;;;;;;;5.30;4.80;;;;;;;18.95;41.09;98923.00;4978426;28;20683;-85
2023/01/24 06:41:58;;;;;;;5.37;4.87;;;;;;;19.05;40.71;98931.28;4967384;28;20202;-85
2023/01/24 06:44:24;;;;;;;7.90;5.50;;;;;;;18.63;40.69;98870.09;4978714;28;20230;-85
2023/01/24 06:46:51;;;;;;;5.70;5.20;;;;;;;18.91;40.36;98924.47;4940523;28;20234;-85
2023/01/24 06:49:17;;;;;;;5.60;5.00;;;;;;;18.91;39.87;98921.91;4977882;28;20207;-85
2023/01/24 06:51:51;;;;;;;5.27;4.77;;;;;;;18.83;39.60;98912.06;4958820;28;20200;-85
2023/01/24 06:54:18;;;;;;;5.20;4.70;;;;;;;18.75;39.70;98895.41;4970366;28;20753;-85
2023/01/24 06:56:44;;;;;;;6.00;5.40;;;;;;;18.82;39.69;98915.38;4988255;28;20201;-85
2023/01/24 06:59:11;;;;;;;5.80;5.20;;;;;;;18.75;39.52;98913.25;4956323;28;20577;-85
2023/01/24 07:01:38;;;;;;;5.20;4.70;;;;;;;19.00;40.21;98959.81;4972737;28;20231;-85
2023/01/24 07:04:04;;;;;;;5.27;4.77;;;;;;;18.83;40.37;98932.44;4973245;28;20227;-85
2023/01/24 07:06:31;;;;;;;5.10;4.60;;;;;;;18.76;41.17;98920.09;4956144;28;20258;-85
2023/01/24 07:08:57;;;;;;;5.37;4.87;;;;;;;18.72;41.63;98919.03;4970796;28;20196;-85
2023/01/24 07:11:25;;;;;;;4.90;4.50;;;;;;;18.94;41.98;98955.22;4973674;28;20250;-85
2023/01/24 07:13:52;;;;;;;6.13;4.50;;;;;;;18.89;42.12;98951.50;4941077;28;20238;-85
2023/01/24 07:16:18;;;;;;;6.03;4.70;;;;;;;18.77;42.02;98934.59;4955809;28;20199;-85
2023/01/24 07:18:45;;;;;;;7.90;5.07;;;;;;;18.64;40.80;98912.56;4956068;28;20732;-85
2023/01/24 07:21:12;;;;;;;5.63;4.97;;;;;;;18.89;39.65;98958.28;4990420;28;20200;-85
2023/01/24 07:23:39;;;;;;;5.50;5.00;;;;;;;18.79;39.13;98953.38;4971355;28;20219;-85
2023/01/24 07:26:09;;;;;;;5.40;4.90;;;;;;;18.79;38.70;98943.19;4955644;28;20652;-84
2023/01/24 07:28:36;;;;;;;5.77;5.23;;;;;;;18.83;38.53;98957.91;4971729;28;20319;-85
2023/01/24 07:31:03;;;;;;;5.33;4.83;;;;;;;18.94;39.11;98977.25;4955848;28;20222;-85
2023/01/24 07:33:30;;;;;;;5.73;5.10;;;;;;;18.38;39.27;98891.38;4955902;28;20259;-85
2023/01/24 07:35:57;;;;;;;5.93;4.90;;;;;;;18.87;40.01;98977.69;4939598;28;20200;-85
2023/01/24 07:38:23;;;;;;;5.27;4.77;;;;;;;18.81;40.83;98968.00;4955143;28;20200;-85
2023/01/24 07:40:50;;;;;;;5.20;4.70;;;;;;;18.71;40.92;98947.81;4955272;28;20208;-85
2023/01/24 07:43:18;;;;;;;4.83;4.33;;;;;;;18.83;41.87;98979.13;4955708;28;20216;-85
2023/01/24 07:45:45;;;;;;;4.93;4.53;;;;;;;18.51;41.78;98916.81;4971342;28;20222;-85
2023/01/24 07:48:12;;;;;;;4.83;4.20;;;;;;;18.73;41.41;98961.53;4971310;28;20223;-85
2023/01/24 07:50:38;;;;;;;4.67;4.20;;;;;;;18.82;41.83;98982.50;4955217;28;20312;-85
2023/01/24 07:53:05;;;;;;;4.93;4.47;;;;;;;18.76;42.11;98963.38;4971002;28;20246;-85
2023/01/24 07:55:31;;;;;;;5.03;4.53;;;;;;;18.91;42.10;98992.34;4971704;28;20200;-85
2023/01/24 07:57:59;;;;;;;4.40;4.00;;;;;;;18.73;42.11;98971.72;4955314;28;20192;-85
2023/01/24 08:00:26;;;;;;;4.40;4.00;;;;;;;18.80;42.79;98975.53;4971754;28;20294;-85
2023/01/24 08:02:52;;;;;;;6.00;4.17;;;;;;;18.82;42.29;98982.50;4971243;28;20266;-85
2023/01/24 08:05:19;;;;;;;4.37;4.00;;;;;;;18.76;43.33;98974.47;4979188;28;20286;-85
2023/01/24 08:07:45;;;;;;;4.33;3.93;;;;;;;18.88;42.70;98997.25;4954818;28;20224;-85
2023/01/24 08:10:12;;;;;;;4.43;4.00;;;;;;;18.77;42.70;98983.84;4964563;28;20211;-85
2023/01/24 08:12:38;;;;;;;4.40;4.00;;;;;;;18.99;42.98;99016.66;4955349;28;20246;-84
2023/01/24 08:15:06;;;;;;;4.73;4.20;;;;;;;18.85;43.36;98987.78;4987365;28;20290;-85
2023/01/24 08:17:35;;;;;;;4.47;4.03;;;;;;;18.84;43.10;98996.22;4971217;28;20276;-85
2023/01/24 08:20:02;;;;;;;4.53;3.90;;;;;;;18.89;43.08;99010.09;4970692;28;20282;-85
2023/01/24 08:22:29;;;;;;;4.20;3.80;;;;;;;18.89;42.87;99001.59;4957221;28;20716;-85
2023/01/24 08:24:55;;;;;;;4.40;4.00;;;;;;;18.96;43.54;99007.16;4956655;28;20207;-85
2023/01/24 08:27:22;;;;;;;4.00;3.70;;;;;;;18.82;43.01;98989.22;4971060;28;20604;-85
2023/01/24 08:29:49;;;;;;;3.67;3.37;;;;;;;18.82;43.59;98984.13;4962754;28;20207;-85
2023/01/24 08:32:15;;;;;;;3.87;3.43;;;;;;;18.79;43.68;98984.84;4954843;28;20204;-86
2023/01/24 08:34:42;;;;;;;4.20;3.80;;;;;;;18.88;43.94;98995.59;4989132;28;20200;-85
2023/01/24 08:37:08;;;;;;;3.97;3.67;;;;;;;18.93;43.41;99013.72;4958932;28;20211;-85
2023/01/24 08:39:35;;;;;;;4.13;3.57;;;;;;;18.82;43.52;98992.69;4974681;28;20674;-85
2023/01/24 08:42:01;;;;;;;3.57;3.27;;;;;;;18.85;43.58;99003.06;4974027;28;20275;-85
2023/01/24 08:44:28;;;;;;;3.87;3.50;;;;;;;18.82;43.79;98990.13;4974927;28;20206;-85
2023/01/24 08:46:54;;;;;;;4.33;3.40;;;;;;;18.85;43.14;99004.72;4990437;28;20318;-85
2023/01/24 08:49:21;;;;;;;3.87;3.47;;;;;;;19.02;43.64;99032.13;4974082;28;20220;-85
2023/01/24 08:51:48;;;;;;;3.90;3.50;;;;;;;18.98;43.76;99030.19;4979431;28;20307;-85
2023/01/24 08:54:14;;;;;;;4.00;3.60;;;;;;;18.79;43.80;98986.50;4958247;28;20250;-85
2023/01/24 08:56:41;;;;;;;3.40;3.10;;;;;;;18.76;43.90;98981.22;4964774;28;20211;-85
2023/01/24 08:59:08;;;;;;;3.90;3.40;;;;;;;18.79;44.05;98987.38;4974240;28;20199;-85
2023/01/24 09:01:34;;;;;;;3.90;3.50;;;;;;;18.95;44.31;99022.34;4954724;29;20204;-85
2023/01/24 09:04:02;;;;;;;3.80;3.50;;;;;;;18.76;44.17;98989.75;4973334;28;20301;-84
2023/01/24 09:06:29;;;;;;;3.30;3.00;;;;;;;18.97;44.03;99029.31;4958278;28;20250;-84
2023/01/24 09:08:55;;;;;;;3.40;3.10;;;;;;;19.09;44.14;99047.91;4965277;28;20302;-84
2023/01/24 09:11:22;;;;;;;3.73;3.43;;;;;;;18.95;44.18;99030.84;4973883;28;20234;-85
2023/01/24 09:13:48;;;;;;;4.07;3.57;;;;;;;18.96;44.00;99031.75;4964292;28;20752;-84
2023/01/24 09:16:15;;;;;;;3.40;3.10;;;;;;;18.80;43.88;98994.22;4957892;28;20195;-84
2023/01/24 09:18:42;;;;;;;3.07;2.87;;;;;;;19.04;44.32;99043.31;4989519;28;20200;-83
2023/01/24 09:21:08;;;;;;;3.43;3.13;;;;;;;18.99;44.28;99034.50;4973534;28;20196;-84
2023/01/24 09:23:35;;;;;;;3.50;3.20;;;;;;;18.92;44.17;99022.16;4967784;28;20223;-83
2023/01/24 09:26:02;;;;;;;3.43;3.13;;;;;;;18.94;44.31;99016.38;4943795;28;20231;-84
2023/01/24 09:28:28;;;;;;;3.70;3.40;;;;;;;18.93;44.06;99022.25;4968424;28;20741;-84
2023/01/24 09:30:55;;;;;;;4.47;3.03;;;;;;;19.05;44.34;99045.06;4976034;28;20215;-84
2023/01/24 09:33:21;;;;;;;3.80;3.10;;;;;;;19.01;43.95;99038.88;4980539;28;20267;-83
2023/01/24 09:35:57;;;;;;;4.10;3.27;;;;;;;18.86;44.05;99015.00;4976714;28;20260;-84
2023/01/24 09:38:26;;;;;;;4.20;3.37;;;;;;;18.94;44.05;99030.75;4979299;28;20622;-84
2023/01/24 09:41:23;;;;;;;3.70;3.30;;;;;;;19.16;44.17;99067.03;4943837;28;20204;-84
2023/01/24 09:43:56;;;;;;;3.50;3.20;;;;;;;18.98;44.33;99035.28;4975497;28;20250;-84
2023/01/24 09:46:24;;;;;;;3.40;3.07;;;;;;;19.16;44.21;99070.44;4974704;28;20212;-84
2023/01/24 09:49:10;;;;;;;4.97;3.40;;;;;;;19.05;44.30;99061.25;4988361;28;20223;-84
2023/01/24 09:51:46;;;;;;;3.43;3.13;;;;;;;19.17;44.64;99072.22;4968438;28;20199;-84
2023/01/24 09:54:16;;;;;;;3.50;3.20;;;;;;;19.01;44.25;99041.44;4971877;28;20632;-83
2023/01/24 09:56:43;;;;;;;3.67;3.37;;;;;;;19.18;44.20;99068.88;4941029;28;20207;-84
2023/01/24 09:59:16;;;;;;;3.60;3.30;;;;;;;18.99;44.30;99031.94;4982610;28;20200;-84
2023/01/24 10:01:43;;;;;;;3.23;2.93;;;;;;;18.97;44.16;99026.75;4957343;28;20295;-84
2023/01/24 10:04:25;;;;;;;3.40;3.10;;;;;;;19.01;44.30;99035.47;4969703;28;20304;-84
2023/01/24 10:07:01;;;;;;;3.27;2.97;;;;;;;18.68;44.20;98983.28;4988270;28;20270;-84
2023/01/24 10:09:51;;;;;;;3.00;2.80;;;;;;;19.19;44.40;99062.13;4971988;28;20223;-83
2023/01/24 10:12:50;;;;;;;3.70;3.40;;;;;;;19.19;44.64;99050.22;4986814;28;20310;-84
2023/01/24 10:15:55;;;;;;;3.20;2.90;;;;;;;19.20;44.62;99059.66;4985665;28;20438;-84
2023/01/24 10:18:40;;;;;;;3.50;3.20;;;;;;;19.00;44.77;99015.88;4974353;28;20745;-84
2023/01/24 10:21:34;;;;;;;3.37;3.07;;;;;;;19.19;44.41;99052.78;4988062;28;20196;-84
2023/01/24 10:24:10;;;;;;;3.40;3.10;;;;;;;19.02;44.63;99022.84;4972671;28;20247;-84
2023/01/24 10:26:46;;;;;;;3.47;3.17;;;;;;;19.04;44.53;99022.94;4970555;28;20638;-84
2023/01/24 10:29:23;;;;;;;3.50;3.20;;;;;;;18.66;44.51;98961.94;4985593;28;20230;-84
2023/01/24 10:31:59;;;;;;;3.33;3.03;;;;;;;19.10;44.60;99036.91;4987957;28;20200;-84
2023/01/24 10:34:32;;;;;;;3.07;2.77;;;;;;;19.21;44.50;99055.44;4972533;28;20230;-84
2023/01/24 10:37:15;;;;;;;3.53;3.23;;;;;;;19.04;44.30;99030.56;4987484;28;20238;-84
2023/01/24 10:39:41;;;;;;;3.23;2.80;;;;;;;19.17;44.72;99056.94;4954558;28;20196;-84
2023/01/24 10:42:27;;;;;;;3.53;3.23;;;;;;;19.20;44.52;99064.75;4970195;28;20303;-84
2023/01/24 10:45:00;;;;;;;3.70;3.40;;;;;;;18.99;44.46;99017.56;4971758;28;20472;-83
2023/01/24 10:47:38;;;;;;;4.60;3.53;;;;;;;19.05;44.67;99027.22;4971228;28;20298;-84
2023/01/24 10:50:09;;;;;;;3.20;2.90;;;;;;;19.21;44.57;99057.97;4987079;28;20682;-84
2023/01/24 10:52:36;;;;;;;3.43;3.13;;;;;;;19.04;44.65;99031.44;4987360;28;20223;-84
2023/01/24 10:55:05;;;;;;;3.20;2.90;;;;;;;19.13;44.68;99033.69;4954216;28;20203;-84
2023/01/24 10:57:36;;;;;;;3.57;3.20;;;;;;;19.04;44.90;99021.25;4968596;28;20560;-84
2023/01/24 11:00:25;;;;;;;3.03;2.80;;;;;;;19.09;44.77;99027.53;4972359;28;20212;-84
2023/01/24 11:02:53;;;;;;;3.10;2.80;;;;;;;19.12;44.79;99032.81;4971240;28;20603;-84
2023/01/24 11:05:20;;;;;;;3.70;3.33;;;;;;;19.09;44.80;99029.19;4971376;28;20211;-84
2023/01/24 11:07:52;;;;;;;3.03;2.73;;;;;;;19.12;44.69;99026.81;4987017;28;20284;-84
2023/01/24 11:10:27;;;;;;;3.50;3.10;;;;;;;19.04;44.71;99000.00;4969613;28;20199;-84
2023/01/24 11:12:55;;;;;;;2.90;2.70;;;;;;;18.90;44.74;98981.31;4986683;28;20761;-84
2023/01/24 11:15:32;;;;;;;3.10;2.90;;;;;;;19.10;44.80;99003.78;4953606;28;20199;-84
2023/01/24 11:18:25;;;;;;;3.30;3.00;;;;;;;19.22;44.76;99024.06;4986794;28;20196;-84
2023/01/24 11:21:12;;;;;;;4.20;3.33;;;;;;;19.21;44.58;99023.19;4984469;28;20200;-84
2023/01/24 11:23:39;;;;;;;3.50;3.10;;;;;;;19.11;44.76;99003.03;4969106;28;20250;-84
2023/01/24 11:26:19;;;;;;;3.10;2.80;;;;;;;19.09;44.94;98993.50;4939398;28;20372;-84
2023/01/24 11:28:58;;;;;;;3.83;3.43;;;;;;;19.11;44.84;98987.72;4970623;28;20270;-84
2023/01/24 11:31:30;;;;;;;3.40;3.10;;;;;;;19.13;44.86;98990.38;4985223;28;20203;-84
2023/01/24 11:34:09;;;;;;;3.27;2.97;;;;;;;19.21;45.06;99007.91;4985473;28;20321;-84
2023/01/24 11:37:04;;;;;;;3.57;3.27;;;;;;;19.22;44.88;98998.59;4970191;28;20752;-84
2023/01/24 11:40:06;;;;;;;3.27;2.97;;;;;;;19.22;44.83;99001.13;4971247;28;20228;-84
2023/01/24 11:42:42;;;;;;;5.00;3.20;;;;;;;19.22;45.05;98996.91;4969367;28;20237;-84
2023/01/24 11:45:18;;;;;;;3.97;3.63;;;;;;;19.22;44.96;98991.81;4971655;28;20203;-84
2023/01/24 11:48:03;;;;;;;2.97;2.73;;;;;;;19.22;44.93;98979.06;4986768;28;22010;-84
2023/01/24 11:50:44;;;;;;;2.90;2.70;;;;;;;19.05;44.88;98948.25;4965393;28;20571;-84
2023/01/24 11:53:35;;;;;;;3.20;2.90;;;;;;;19.02;45.11;98948.06;4986070;28;20314;-84
2023/01/24 11:56:10;;;;;;;3.23;2.93;;;;;;;19.23;45.05;98979.94;4986745;28;20214;-84
2023/01/24 11:58:46;;;;;;;3.97;3.57;;;;;;;19.22;44.75;98973.09;4952990;28;20261;-84
2023/01/24 12:01:40;;;;;;;3.03;2.77;;;;;;;19.23;44.77;98974.84;4971340;28;20239;-84
2023/01/24 12:04:38;;;;;;;3.40;3.10;;;;;;;19.23;44.88;98972.31;4971368;28;20226;-84
2023/01/24 12:07:26;;;;;;;3.07;2.80;;;;;;;19.02;45.04;98928.56;4970429;28;20295;-84
2023/01/24 12:10:09;;;;;;;3.17;2.87;;;;;;;19.14;44.95;98946.25;4987214;28;20223;-84
2023/01/24 12:13:00;;;;;;;3.70;3.40;;;;;;;19.23;45.20;98967.22;4941514;28;20270;-84
2023/01/24 12:15:57;;;;;;;3.30;3.00;;;;;;;19.12;45.21;98945.28;4974366;28;20283;-84
2023/01/24 12:18:34;;;;;;;3.43;3.03;;;;;;;19.22;45.05;98951.03;4987010;28;20196;-84
2023/01/24 12:21:10;;;;;;;3.50;3.20;;;;;;;19.16;45.21;98944.69;4974564;28;20294;-84
2023/01/24 12:23:42;;;;;;;3.47;3.17;;;;;;;19.24;45.01;98948.56;4961713;28;20223;-83